Weather at Oak Grove Farm Airport

Public forecast

Using degrees Fahrenheit for public forecast. Weather courtesy of forecast.io.

Closest aviation weather report (METAR) to Oak Grove Farm Airport

Closest report is Cambridge Dorchester Airport, 16.1 nm (29.9 km) WSW. Retrieved 2021/06/13 11:35 UTC (0 seconds ago):

KCGE 131135Z AUTO 08004KT 4SM BR OVC003 17/17 A2993 RMK A01

Closest aviation forecast (TAF) to Oak Grove Farm Airport

Closest forecast is Salisbury Ocean City Wicomico Regional Airport, 21.4 nm (39.7 km) SSE. Retrieved 2021/06/13 06:58 UTC (4 hours ago):

TAF KSBY 130556Z 1306/1406 VRB02KT P6SM SCT040 FM131300 13005KT P6SM SCT040 FM131800 14007KT P6SM SCT050 FM140200 13004KT P6SM BKN100